sensor_id;sensor_type;location;lat;lon;timestamp;P1;durP1;ratioP1;P2;durP2;ratioP2
4831;SDS011;2430;51.322;7.864;2023-06-14T00:01:01;6.73;;;6.00;;
4831;SDS011;2430;51.322;7.864;2023-06-14T00:03:27;9.23;;;5.87;;
4831;SDS011;2430;51.322;7.864;2023-06-14T00:05:54;7.20;;;6.03;;
4831;SDS011;2430;51.322;7.864;2023-06-14T00:08:20;6.63;;;5.50;;
4831;SDS011;2430;51.322;7.864;2023-06-14T00:10:47;7.73;;;6.07;;
4831;SDS011;2430;51.322;7.864;2023-06-14T00:13:15;6.87;;;5.90;;
4831;SDS011;2430;51.322;7.864;2023-06-14T00:15:41;7.20;;;5.50;;
4831;SDS011;2430;51.322;7.864;2023-06-14T00:18:08;7.27;;;5.90;;
4831;SDS011;2430;51.322;7.864;2023-06-14T00:20:37;6.33;;;5.07;;
4831;SDS011;2430;51.322;7.864;2023-06-14T00:23:05;7.57;;;6.13;;
4831;SDS011;2430;51.322;7.864;2023-06-14T00:25:32;6.10;;;5.50;;
4831;SDS011;2430;51.322;7.864;2023-06-14T00:27:58;5.47;;;4.93;;
4831;SDS011;2430;51.322;7.864;2023-06-14T00:30:27;7.60;;;5.80;;
4831;SDS011;2430;51.322;7.864;2023-06-14T00:32:55;7.53;;;6.13;;
4831;SDS011;2430;51.322;7.864;2023-06-14T00:35:22;13.60;;;6.20;;
4831;SDS011;2430;51.322;7.864;2023-06-14T00:37:49;8.80;;;6.50;;
4831;SDS011;2430;51.322;7.864;2023-06-14T00:40:15;7.83;;;5.30;;
4831;SDS011;2430;51.322;7.864;2023-06-14T00:42:41;6.00;;;5.20;;
4831;SDS011;2430;51.322;7.864;2023-06-14T00:45:08;6.87;;;5.10;;
4831;SDS011;2430;51.322;7.864;2023-06-14T00:47:36;7.50;;;6.17;;
4831;SDS011;2430;51.322;7.864;2023-06-14T00:50:05;7.90;;;6.03;;
4831;SDS011;2430;51.322;7.864;2023-06-14T00:52:32;5.10;;;4.60;;
4831;SDS011;2430;51.322;7.864;2023-06-14T00:54:59;8.10;;;6.43;;
4831;SDS011;2430;51.322;7.864;2023-06-14T00:57:26;6.20;;;5.60;;
4831;SDS011;2430;51.322;7.864;2023-06-14T00:59:53;7.40;;;5.87;;
4831;SDS011;2430;51.322;7.864;2023-06-14T01:02:20;6.20;;;5.40;;
4831;SDS011;2430;51.322;7.864;2023-06-14T01:04:49;7.77;;;5.20;;
4831;SDS011;2430;51.322;7.864;2023-06-14T01:07:18;6.70;;;5.70;;
4831;SDS011;2430;51.322;7.864;2023-06-14T01:09:52;8.83;;;6.30;;
4831;SDS011;2430;51.322;7.864;2023-06-14T01:12:24;7.27;;;5.87;;
4831;SDS011;2430;51.322;7.864;2023-06-14T01:14:50;7.53;;;6.03;;
4831;SDS011;2430;51.322;7.864;2023-06-14T01:17:18;6.00;;;5.27;;
4831;SDS011;2430;51.322;7.864;2023-06-14T01:19:45;8.70;;;7.03;;
4831;SDS011;2430;51.322;7.864;2023-06-14T01:22:13;8.20;;;5.90;;
4831;SDS011;2430;51.322;7.864;2023-06-14T01:24:41;6.10;;;5.50;;
4831;SDS011;2430;51.322;7.864;2023-06-14T01:27:10;7.23;;;5.83;;
4831;SDS011;2430;51.322;7.864;2023-06-14T01:29:37;11.10;;;6.13;;
4831;SDS011;2430;51.322;7.864;2023-06-14T01:32:04;8.90;;;6.07;;
4831;SDS011;2430;51.322;7.864;2023-06-14T01:34:30;8.37;;;5.83;;
4831;SDS011;2430;51.322;7.864;2023-06-14T01:36:57;6.10;;;5.40;;
4831;SDS011;2430;51.322;7.864;2023-06-14T01:39:24;8.27;;;6.10;;
4831;SDS011;2430;51.322;7.864;2023-06-14T01:41:52;7.03;;;5.20;;
4831;SDS011;2430;51.322;7.864;2023-06-14T01:44:18;7.70;;;5.80;;
4831;SDS011;2430;51.322;7.864;2023-06-14T01:46:46;6.30;;;5.67;;
4831;SDS011;2430;51.322;7.864;2023-06-14T01:49:12;8.13;;;6.30;;
4831;SDS011;2430;51.322;7.864;2023-06-14T01:51:38;8.30;;;6.60;;
4831;SDS011;2430;51.322;7.864;2023-06-14T01:54:05;6.60;;;5.63;;
4831;SDS011;2430;51.322;7.864;2023-06-14T01:56:32;8.07;;;6.40;;
4831;SDS011;2430;51.322;7.864;2023-06-14T01:58:59;6.37;;;5.30;;
4831;SDS011;2430;51.322;7.864;2023-06-14T02:01:26;8.40;;;6.83;;
4831;SDS011;2430;51.322;7.864;2023-06-14T02:03:53;7.90;;;5.90;;
4831;SDS011;2430;51.322;7.864;2023-06-14T02:06:19;8.57;;;6.37;;
4831;SDS011;2430;51.322;7.864;2023-06-14T02:08:45;9.93;;;7.20;;
4831;SDS011;2430;51.322;7.864;2023-06-14T02:11:11;7.73;;;6.70;;
4831;SDS011;2430;51.322;7.864;2023-06-14T02:13:39;10.07;;;7.03;;
4831;SDS011;2430;51.322;7.864;2023-06-14T02:16:06;10.97;;;6.20;;
4831;SDS011;2430;51.322;7.864;2023-06-14T02:18:33;9.60;;;6.13;;
4831;SDS011;2430;51.322;7.864;2023-06-14T02:23:27;12.50;;;6.60;;
4831;SDS011;2430;51.322;7.864;2023-06-14T02:25:53;7.60;;;6.30;;
4831;SDS011;2430;51.322;7.864;2023-06-14T02:28:20;7.40;;;5.80;;
4831;SDS011;2430;51.322;7.864;2023-06-14T02:30:46;11.10;;;7.73;;
4831;SDS011;2430;51.322;7.864;2023-06-14T02:33:14;6.73;;;5.90;;
4831;SDS011;2430;51.322;7.864;2023-06-14T02:35:40;7.63;;;5.90;;
4831;SDS011;2430;51.322;7.864;2023-06-14T02:38:06;8.43;;;6.77;;
4831;SDS011;2430;51.322;7.864;2023-06-14T02:40:33;7.03;;;5.57;;
4831;SDS011;2430;51.322;7.864;2023-06-14T02:42:59;6.37;;;5.73;;
4831;SDS011;2430;51.322;7.864;2023-06-14T02:45:26;8.23;;;5.77;;
4831;SDS011;2430;51.322;7.864;2023-06-14T02:47:53;6.90;;;5.87;;
4831;SDS011;2430;51.322;7.864;2023-06-14T02:50:22;10.70;;;6.37;;
4831;SDS011;2430;51.322;7.864;2023-06-14T02:52:49;8.07;;;5.83;;
4831;SDS011;2430;51.322;7.864;2023-06-14T02:55:15;8.87;;;6.77;;
4831;SDS011;2430;51.322;7.864;2023-06-14T02:57:42;12.50;;;6.53;;
4831;SDS011;2430;51.322;7.864;2023-06-14T03:00:09;6.83;;;6.10;;
4831;SDS011;2430;51.322;7.864;2023-06-14T03:02:38;8.47;;;5.80;;
4831;SDS011;2430;51.322;7.864;2023-06-14T03:05:04;8.73;;;6.50;;
4831;SDS011;2430;51.322;7.864;2023-06-14T03:07:33;6.33;;;5.70;;
4831;SDS011;2430;51.322;7.864;2023-06-14T03:10:00;6.10;;;5.50;;
4831;SDS011;2430;51.322;7.864;2023-06-14T03:12:27;6.00;;;5.50;;
4831;SDS011;2430;51.322;7.864;2023-06-14T03:14:54;10.97;;;6.40;;
4831;SDS011;2430;51.322;7.864;2023-06-14T03:17:22;7.17;;;6.47;;
4831;SDS011;2430;51.322;7.864;2023-06-14T03:19:49;7.83;;;7.03;;
4831;SDS011;2430;51.322;7.864;2023-06-14T03:22:16;7.47;;;6.33;;
4831;SDS011;2430;51.322;7.864;2023-06-14T03:24:44;7.63;;;6.40;;
4831;SDS011;2430;51.322;7.864;2023-06-14T03:27:11;10.60;;;6.00;;
4831;SDS011;2430;51.322;7.864;2023-06-14T03:29:37;7.23;;;5.50;;
4831;SDS011;2430;51.322;7.864;2023-06-14T03:32:05;9.10;;;6.17;;
4831;SDS011;2430;51.322;7.864;2023-06-14T03:34:32;6.10;;;5.50;;
4831;SDS011;2430;51.322;7.864;2023-06-14T03:36:58;6.70;;;6.00;;
4831;SDS011;2430;51.322;7.864;2023-06-14T03:39:25;6.30;;;5.37;;
4831;SDS011;2430;51.322;7.864;2023-06-14T03:41:52;6.90;;;5.73;;
4831;SDS011;2430;51.322;7.864;2023-06-14T03:44:18;10.10;;;6.60;;
4831;SDS011;2430;51.322;7.864;2023-06-14T03:46:45;6.27;;;5.20;;
4831;SDS011;2430;51.322;7.864;2023-06-14T03:49:11;5.80;;;5.20;;
4831;SDS011;2430;51.322;7.864;2023-06-14T03:51:37;9.10;;;6.37;;
4831;SDS011;2430;51.322;7.864;2023-06-14T03:54:05;11.20;;;6.17;;
4831;SDS011;2430;51.322;7.864;2023-06-14T03:56:31;8.03;;;5.43;;
4831;SDS011;2430;51.322;7.864;2023-06-14T03:58:59;6.10;;;5.50;;
4831;SDS011;2430;51.322;7.864;2023-06-14T04:01:25;8.87;;;5.63;;
4831;SDS011;2430;51.322;7.864;2023-06-14T04:03:54;9.00;;;6.30;;
4831;SDS011;2430;51.322;7.864;2023-06-14T04:06:20;9.93;;;6.03;;
4831;SDS011;2430;51.322;7.864;2023-06-14T04:08:47;6.70;;;5.63;;
4831;SDS011;2430;51.322;7.864;2023-06-14T04:11:14;8.37;;;6.40;;
4831;SDS011;2430;51.322;7.864;2023-06-14T04:13:40;6.63;;;5.50;;
4831;SDS011;2430;51.322;7.864;2023-06-14T04:16:08;8.63;;;6.07;;
4831;SDS011;2430;51.322;7.864;2023-06-14T04:18:34;7.17;;;6.10;;
4831;SDS011;2430;51.322;7.864;2023-06-14T04:21:00;8.07;;;5.90;;
4831;SDS011;2430;51.322;7.864;2023-06-14T04:23:27;7.63;;;5.50;;
4831;SDS011;2430;51.322;7.864;2023-06-14T04:25:53;8.53;;;6.50;;
4831;SDS011;2430;51.322;7.864;2023-06-14T04:28:19;8.00;;;6.23;;
4831;SDS011;2430;51.322;7.864;2023-06-14T04:30:50;6.13;;;5.43;;
4831;SDS011;2430;51.322;7.864;2023-06-14T04:33:20;7.73;;;5.73;;
4831;SDS011;2430;51.322;7.864;2023-06-14T04:35:46;9.40;;;6.57;;
4831;SDS011;2430;51.322;7.864;2023-06-14T04:38:13;8.20;;;6.63;;
4831;SDS011;2430;51.322;7.864;2023-06-14T04:40:40;10.10;;;6.50;;
4831;SDS011;2430;51.322;7.864;2023-06-14T04:43:09;9.10;;;6.60;;
4831;SDS011;2430;51.322;7.864;2023-06-14T04:45:37;7.57;;;6.30;;
4831;SDS011;2430;51.322;7.864;2023-06-14T04:48:05;10.53;;;7.00;;
4831;SDS011;2430;51.322;7.864;2023-06-14T04:50:33;7.33;;;6.27;;
4831;SDS011;2430;51.322;7.864;2023-06-14T04:53:00;9.87;;;6.37;;
4831;SDS011;2430;51.322;7.864;2023-06-14T04:55:26;7.00;;;6.00;;
4831;SDS011;2430;51.322;7.864;2023-06-14T04:57:52;11.87;;;6.17;;
4831;SDS011;2430;51.322;7.864;2023-06-14T05:00:19;7.33;;;5.97;;
4831;SDS011;2430;51.322;7.864;2023-06-14T05:02:46;9.10;;;6.63;;
4831;SDS011;2430;51.322;7.864;2023-06-14T05:05:14;5.90;;;5.30;;
4831;SDS011;2430;51.322;7.864;2023-06-14T05:07:42;6.50;;;5.80;;
4831;SDS011;2430;51.322;7.864;2023-06-14T05:10:08;8.30;;;6.93;;
4831;SDS011;2430;51.322;7.864;2023-06-14T05:12:35;9.40;;;5.60;;
4831;SDS011;2430;51.322;7.864;2023-06-14T05:15:01;6.60;;;5.73;;
4831;SDS011;2430;51.322;7.864;2023-06-14T05:17:28;12.00;;;5.27;;
4831;SDS011;2430;51.322;7.864;2023-06-14T05:19:54;6.57;;;4.87;;
4831;SDS011;2430;51.322;7.864;2023-06-14T05:22:21;6.13;;;5.53;;
4831;SDS011;2430;51.322;7.864;2023-06-14T05:24:55;8.10;;;6.60;;
4831;SDS011;2430;51.322;7.864;2023-06-14T05:27:21;7.83;;;5.60;;
4831;SDS011;2430;51.322;7.864;2023-06-14T05:29:49;5.53;;;4.90;;
4831;SDS011;2430;51.322;7.864;2023-06-14T05:32:16;9.30;;;5.80;;
4831;SDS011;2430;51.322;7.864;2023-06-14T05:34:42;7.27;;;4.87;;
4831;SDS011;2430;51.322;7.864;2023-06-14T05:37:09;8.80;;;4.50;;
4831;SDS011;2430;51.322;7.864;2023-06-14T05:39:35;9.73;;;5.30;;
4831;SDS011;2430;51.322;7.864;2023-06-14T05:42:03;10.20;;;4.57;;
4831;SDS011;2430;51.322;7.864;2023-06-14T05:44:29;8.07;;;5.00;;
4831;SDS011;2430;51.322;7.864;2023-06-14T05:46:56;6.30;;;4.90;;
4831;SDS011;2430;51.322;7.864;2023-06-14T05:49:22;8.23;;;4.20;;
4831;SDS011;2430;51.322;7.864;2023-06-14T05:51:48;12.87;;;4.20;;
4831;SDS011;2430;51.322;7.864;2023-06-14T05:54:15;9.13;;;4.40;;
4831;SDS011;2430;51.322;7.864;2023-06-14T05:56:41;7.10;;;4.40;;
4831;SDS011;2430;51.322;7.864;2023-06-14T05:59:09;10.57;;;4.40;;
4831;SDS011;2430;51.322;7.864;2023-06-14T06:01:35;4.70;;;4.20;;
4831;SDS011;2430;51.322;7.864;2023-06-14T06:04:01;7.67;;;4.13;;
4831;SDS011;2430;51.322;7.864;2023-06-14T06:06:27;6.30;;;3.90;;
4831;SDS011;2430;51.322;7.864;2023-06-14T06:08:54;6.77;;;3.80;;
4831;SDS011;2430;51.322;7.864;2023-06-14T06:11:20;6.80;;;2.87;;
4831;SDS011;2430;51.322;7.864;2023-06-14T06:13:47;3.67;;;2.87;;
4831;SDS011;2430;51.322;7.864;2023-06-14T06:16:15;3.03;;;2.70;;
4831;SDS011;2430;51.322;7.864;2023-06-14T06:18:41;3.50;;;3.20;;
4831;SDS011;2430;51.322;7.864;2023-06-14T06:21:07;4.07;;;2.67;;
4831;SDS011;2430;51.322;7.864;2023-06-14T06:23:34;5.77;;;2.63;;
4831;SDS011;2430;51.322;7.864;2023-06-14T06:26:00;2.77;;;2.43;;
4831;SDS011;2430;51.322;7.864;2023-06-14T06:28:26;4.90;;;2.30;;
4831;SDS011;2430;51.322;7.864;2023-06-14T06:30:53;5.80;;;2.70;;
4831;SDS011;2430;51.322;7.864;2023-06-14T06:33:21;9.27;;;2.97;;
4831;SDS011;2430;51.322;7.864;2023-06-14T06:35:48;5.07;;;2.47;;
4831;SDS011;2430;51.322;7.864;2023-06-14T06:38:15;5.57;;;2.20;;
4831;SDS011;2430;51.322;7.864;2023-06-14T06:45:53;6.50;;;2.23;;
4831;SDS011;2430;51.322;7.864;2023-06-14T06:48:20;2.80;;;2.10;;
4831;SDS011;2430;51.322;7.864;2023-06-14T06:50:47;10.70;;;2.20;;
4831;SDS011;2430;51.322;7.864;2023-06-14T06:53:14;6.53;;;2.80;;
4831;SDS011;2430;51.322;7.864;2023-06-14T06:55:40;2.03;;;1.83;;
4831;SDS011;2430;51.322;7.864;2023-06-14T06:58:06;2.07;;;1.90;;
4831;SDS011;2430;51.322;7.864;2023-06-14T07:00:32;5.83;;;2.20;;
4831;SDS011;2430;51.322;7.864;2023-06-14T07:02:59;4.10;;;2.30;;
4831;SDS011;2430;51.322;7.864;2023-06-14T07:05:25;2.37;;;2.10;;
4831;SDS011;2430;51.322;7.864;2023-06-14T07:07:52;1.83;;;1.73;;
4831;SDS011;2430;51.322;7.864;2023-06-14T07:10:19;2.70;;;1.80;;
4831;SDS011;2430;51.322;7.864;2023-06-14T07:12:45;4.27;;;1.80;;
4831;SDS011;2430;51.322;7.864;2023-06-14T07:15:11;2.50;;;2.00;;
4831;SDS011;2430;51.322;7.864;2023-06-14T07:17:38;2.40;;;1.90;;
4831;SDS011;2430;51.322;7.864;2023-06-14T07:20:04;2.43;;;1.90;;
4831;SDS011;2430;51.322;7.864;2023-06-14T07:22:36;3.57;;;1.60;;
4831;SDS011;2430;51.322;7.864;2023-06-14T07:25:04;2.93;;;2.13;;
4831;SDS011;2430;51.322;7.864;2023-06-14T07:27:31;3.23;;;1.80;;
4831;SDS011;2430;51.322;7.864;2023-06-14T07:29:57;2.00;;;1.80;;
4831;SDS011;2430;51.322;7.864;2023-06-14T07:32:23;5.50;;;1.80;;
4831;SDS011;2430;51.322;7.864;2023-06-14T07:34:49;3.30;;;1.80;;
4831;SDS011;2430;51.322;7.864;2023-06-14T07:37:15;2.03;;;1.30;;
4831;SDS011;2430;51.322;7.864;2023-06-14T07:39:42;3.50;;;1.50;;
4831;SDS011;2430;51.322;7.864;2023-06-14T07:42:09;3.40;;;2.27;;
4831;SDS011;2430;51.322;7.864;2023-06-14T07:44:36;7.63;;;1.87;;
4831;SDS011;2430;51.322;7.864;2023-06-14T07:47:02;2.33;;;1.60;;
4831;SDS011;2430;51.322;7.864;2023-06-14T07:49:28;1.93;;;1.53;;
4831;SDS011;2430;51.322;7.864;2023-06-14T07:51:55;1.97;;;1.70;;
4831;SDS011;2430;51.322;7.864;2023-06-14T07:54:21;2.00;;;1.80;;
4831;SDS011;2430;51.322;7.864;2023-06-14T07:56:50;2.10;;;1.50;;
4831;SDS011;2430;51.322;7.864;2023-06-14T07:59:18;1.80;;;1.50;;
4831;SDS011;2430;51.322;7.864;2023-06-14T08:01:44;4.17;;;1.37;;
4831;SDS011;2430;51.322;7.864;2023-06-14T08:04:12;4.40;;;1.70;;
4831;SDS011;2430;51.322;7.864;2023-06-14T08:06:38;2.53;;;1.30;;
4831;SDS011;2430;51.322;7.864;2023-06-14T08:09:04;3.10;;;1.30;;
4831;SDS011;2430;51.322;7.864;2023-06-14T08:11:31;1.63;;;1.53;;
4831;SDS011;2430;51.322;7.864;2023-06-14T08:13:58;1.80;;;1.27;;
4831;SDS011;2430;51.322;7.864;2023-06-14T08:16:25;2.30;;;1.60;;
4831;SDS011;2430;51.322;7.864;2023-06-14T08:18:51;1.50;;;1.40;;
4831;SDS011;2430;51.322;7.864;2023-06-14T08:21:18;10.27;;;1.73;;
4831;SDS011;2430;51.322;7.864;2023-06-14T08:23:44;2.73;;;1.63;;
4831;SDS011;2430;51.322;7.864;2023-06-14T08:26:10;2.40;;;2.20;;
4831;SDS011;2430;51.322;7.864;2023-06-14T08:28:37;1.77;;;1.40;;
4831;SDS011;2430;51.322;7.864;2023-06-14T08:31:03;1.70;;;1.60;;
4831;SDS011;2430;51.322;7.864;2023-06-14T08:33:31;3.33;;;1.77;;
4831;SDS011;2430;51.322;7.864;2023-06-14T08:35:59;4.60;;;1.87;;
4831;SDS011;2430;51.322;7.864;2023-06-14T08:38:26;1.47;;;1.37;;
4831;SDS011;2430;51.322;7.864;2023-06-14T08:40:52;1.40;;;1.30;;
4831;SDS011;2430;51.322;7.864;2023-06-14T08:43:21;1.30;;;1.20;;
4831;SDS011;2430;51.322;7.864;2023-06-14T08:45:47;2.00;;;1.57;;
4831;SDS011;2430;51.322;7.864;2023-06-14T08:48:15;1.30;;;1.20;;
4831;SDS011;2430;51.322;7.864;2023-06-14T08:50:44;1.60;;;1.47;;
4831;SDS011;2430;51.322;7.864;2023-06-14T08:53:11;1.50;;;1.27;;
4831;SDS011;2430;51.322;7.864;2023-06-14T08:55:41;1.50;;;1.40;;
4831;SDS011;2430;51.322;7.864;2023-06-14T08:58:08;2.67;;;1.73;;
4831;SDS011;2430;51.322;7.864;2023-06-14T09:00:39;5.37;;;2.30;;
4831;SDS011;2430;51.322;7.864;2023-06-14T09:03:06;1.90;;;1.33;;
4831;SDS011;2430;51.322;7.864;2023-06-14T09:05:38;1.30;;;1.20;;
4831;SDS011;2430;51.322;7.864;2023-06-14T09:08:05;2.00;;;1.40;;
4831;SDS011;2430;51.322;7.864;2023-06-14T09:10:32;2.50;;;1.73;;
4831;SDS011;2430;51.322;7.864;2023-06-14T09:13:01;1.23;;;1.13;;
4831;SDS011;2430;51.322;7.864;2023-06-14T09:15:28;1.40;;;1.20;;
4831;SDS011;2430;51.322;7.864;2023-06-14T09:17:54;1.13;;;1.03;;
4831;SDS011;2430;51.322;7.864;2023-06-14T09:20:21;2.60;;;1.33;;
4831;SDS011;2430;51.322;7.864;2023-06-14T09:22:49;1.40;;;1.30;;
4831;SDS011;2430;51.322;7.864;2023-06-14T09:25:17;2.17;;;1.23;;
4831;SDS011;2430;51.322;7.864;2023-06-14T09:27:45;1.73;;;1.20;;
4831;SDS011;2430;51.322;7.864;2023-06-14T09:30:11;2.40;;;1.17;;
4831;SDS011;2430;51.322;7.864;2023-06-14T09:32:38;1.20;;;1.00;;
4831;SDS011;2430;51.322;7.864;2023-06-14T09:35:08;6.70;;;1.07;;
4831;SDS011;2430;51.322;7.864;2023-06-14T09:37:34;1.50;;;1.10;;
4831;SDS011;2430;51.322;7.864;2023-06-14T09:40:02;3.17;;;1.23;;
4831;SDS011;2430;51.322;7.864;2023-06-14T09:42:30;1.87;;;1.43;;
4831;SDS011;2430;51.322;7.864;2023-06-14T09:45:00;2.90;;;1.10;;
4831;SDS011;2430;51.322;7.864;2023-06-14T09:47:28;6.73;;;1.10;;
4831;SDS011;2430;51.322;7.864;2023-06-14T09:49:54;3.43;;;1.40;;
4831;SDS011;2430;51.322;7.864;2023-06-14T09:52:21;3.23;;;1.20;;
4831;SDS011;2430;51.322;7.864;2023-06-14T09:54:49;2.97;;;1.30;;
4831;SDS011;2430;51.322;7.864;2023-06-14T09:57:16;1.47;;;1.37;;
4831;SDS011;2430;51.322;7.864;2023-06-14T09:59:44;2.80;;;1.20;;
4831;SDS011;2430;51.322;7.864;2023-06-14T10:02:14;1.87;;;1.20;;
4831;SDS011;2430;51.322;7.864;2023-06-14T10:04:46;1.20;;;1.10;;
4831;SDS011;2430;51.322;7.864;2023-06-14T10:07:12;1.30;;;1.20;;
4831;SDS011;2430;51.322;7.864;2023-06-14T10:09:39;4.00;;;1.43;;
4831;SDS011;2430;51.322;7.864;2023-06-14T10:12:09;2.27;;;1.40;;
4831;SDS011;2430;51.322;7.864;2023-06-14T10:14:36;1.70;;;1.50;;
4831;SDS011;2430;51.322;7.864;2023-06-14T10:17:04;1.30;;;1.20;;
4831;SDS011;2430;51.322;7.864;2023-06-14T10:19:36;1.67;;;1.43;;
4831;SDS011;2430;51.322;7.864;2023-06-14T10:22:04;2.07;;;1.50;;
4831;SDS011;2430;51.322;7.864;2023-06-14T10:24:32;2.23;;;1.90;;
4831;SDS011;2430;51.322;7.864;2023-06-14T10:26:59;2.00;;;1.50;;
4831;SDS011;2430;51.322;7.864;2023-06-14T10:29:25;1.80;;;1.40;;
4831;SDS011;2430;51.322;7.864;2023-06-14T10:31:57;2.20;;;1.63;;
4831;SDS011;2430;51.322;7.864;2023-06-14T10:34:28;1.47;;;1.37;;
4831;SDS011;2430;51.322;7.864;2023-06-14T10:37:01;4.33;;;1.60;;
4831;SDS011;2430;51.322;7.864;2023-06-14T10:39:28;1.50;;;1.40;;
4831;SDS011;2430;51.322;7.864;2023-06-14T10:41:55;3.10;;;1.70;;
4831;SDS011;2430;51.322;7.864;2023-06-14T10:44:32;1.50;;;1.40;;
4831;SDS011;2430;51.322;7.864;2023-06-14T10:46:59;1.80;;;1.50;;
4831;SDS011;2430;51.322;7.864;2023-06-14T10:49:37;5.60;;;1.70;;
4831;SDS011;2430;51.322;7.864;2023-06-14T10:52:07;4.10;;;1.60;;
4831;SDS011;2430;51.322;7.864;2023-06-14T10:54:34;2.23;;;1.30;;
4831;SDS011;2430;51.322;7.864;2023-06-14T10:57:00;1.50;;;1.40;;
4831;SDS011;2430;51.322;7.864;2023-06-14T10:59:26;1.70;;;1.60;;
4831;SDS011;2430;51.322;7.864;2023-06-14T11:01:55;4.40;;;1.37;;
4831;SDS011;2430;51.322;7.864;2023-06-14T11:04:23;3.07;;;1.57;;
4831;SDS011;2430;51.322;7.864;2023-06-14T11:07:05;2.40;;;1.60;;
4831;SDS011;2430;51.322;7.864;2023-06-14T11:09:44;1.60;;;1.50;;
4831;SDS011;2430;51.322;7.864;2023-06-14T11:12:15;2.00;;;1.73;;
4831;SDS011;2430;51.322;7.864;2023-06-14T11:14:41;1.60;;;1.50;;
4831;SDS011;2430;51.322;7.864;2023-06-14T11:17:07;1.67;;;1.57;;
4831;SDS011;2430;51.322;7.864;2023-06-14T11:19:34;3.93;;;1.73;;
4831;SDS011;2430;51.322;7.864;2023-06-14T11:22:02;2.00;;;1.80;;
4831;SDS011;2430;51.322;7.864;2023-06-14T11:24:28;4.50;;;1.63;;
4831;SDS011;2430;51.322;7.864;2023-06-14T11:26:55;3.13;;;1.80;;
4831;SDS011;2430;51.322;7.864;2023-06-14T11:29:22;3.53;;;1.50;;
4831;SDS011;2430;51.322;7.864;2023-06-14T11:31:48;2.70;;;1.87;;
4831;SDS011;2430;51.322;7.864;2023-06-14T11:34:15;7.10;;;1.50;;
4831;SDS011;2430;51.322;7.864;2023-06-14T11:36:41;1.67;;;1.57;;
4831;SDS011;2430;51.322;7.864;2023-06-14T11:39:09;3.13;;;1.90;;
4831;SDS011;2430;51.322;7.864;2023-06-14T11:41:36;1.90;;;1.70;;
4831;SDS011;2430;51.322;7.864;2023-06-14T11:44:03;3.20;;;2.07;;
4831;SDS011;2430;51.322;7.864;2023-06-14T11:46:29;3.30;;;1.67;;
4831;SDS011;2430;51.322;7.864;2023-06-14T11:48:55;2.60;;;1.50;;
4831;SDS011;2430;51.322;7.864;2023-06-14T11:51:21;1.73;;;1.60;;
4831;SDS011;2430;51.322;7.864;2023-06-14T11:53:48;2.50;;;1.60;;
4831;SDS011;2430;51.322;7.864;2023-06-14T11:56:15;1.77;;;1.43;;
4831;SDS011;2430;51.322;7.864;2023-06-14T11:58:42;1.70;;;1.60;;
4831;SDS011;2430;51.322;7.864;2023-06-14T12:01:08;1.77;;;1.60;;
4831;SDS011;2430;51.322;7.864;2023-06-14T12:03:35;3.03;;;1.70;;
4831;SDS011;2430;51.322;7.864;2023-06-14T12:06:04;2.00;;;1.67;;
4831;SDS011;2430;51.322;7.864;2023-06-14T12:08:34;2.70;;;1.67;;
4831;SDS011;2430;51.322;7.864;2023-06-14T12:11:03;3.57;;;2.43;;
4831;SDS011;2430;51.322;7.864;2023-06-14T12:13:31;1.53;;;1.43;;
4831;SDS011;2430;51.322;7.864;2023-06-14T12:15:57;3.77;;;2.10;;
4831;SDS011;2430;51.322;7.864;2023-06-14T12:18:31;10.83;;;1.67;;
4831;SDS011;2430;51.322;7.864;2023-06-14T12:20:58;3.10;;;1.80;;
4831;SDS011;2430;51.322;7.864;2023-06-14T12:23:27;5.80;;;1.43;;
4831;SDS011;2430;51.322;7.864;2023-06-14T12:26:04;1.60;;;1.50;;
4831;SDS011;2430;51.322;7.864;2023-06-14T12:28:32;3.07;;;1.90;;
4831;SDS011;2430;51.322;7.864;2023-06-14T12:30:58;1.90;;;1.80;;
4831;SDS011;2430;51.322;7.864;2023-06-14T12:33:24;6.40;;;1.90;;
4831;SDS011;2430;51.322;7.864;2023-06-14T12:35:51;2.10;;;1.90;;
4831;SDS011;2430;51.322;7.864;2023-06-14T12:38:17;2.93;;;1.60;;
4831;SDS011;2430;51.322;7.864;2023-06-14T12:40:43;2.60;;;1.93;;
4831;SDS011;2430;51.322;7.864;2023-06-14T12:43:10;1.90;;;1.70;;
4831;SDS011;2430;51.322;7.864;2023-06-14T12:45:38;5.73;;;1.77;;
4831;SDS011;2430;51.322;7.864;2023-06-14T12:48:04;1.80;;;1.47;;
4831;SDS011;2430;51.322;7.864;2023-06-14T12:50:30;3.07;;;1.60;;
4831;SDS011;2430;51.322;7.864;2023-06-14T12:52:57;4.20;;;1.77;;
4831;SDS011;2430;51.322;7.864;2023-06-14T12:55:24;4.80;;;1.60;;
4831;SDS011;2430;51.322;7.864;2023-06-14T12:57:50;3.80;;;2.10;;
4831;SDS011;2430;51.322;7.864;2023-06-14T13:00:17;2.30;;;2.07;;
4831;SDS011;2430;51.322;7.864;2023-06-14T13:02:46;1.93;;;1.60;;
4831;SDS011;2430;51.322;7.864;2023-06-14T13:05:12;1.90;;;1.70;;
4831;SDS011;2430;51.322;7.864;2023-06-14T13:07:38;2.27;;;1.80;;
4831;SDS011;2430;51.322;7.864;2023-06-14T13:10:05;2.13;;;1.87;;
4831;SDS011;2430;51.322;7.864;2023-06-14T13:12:31;2.87;;;2.20;;
4831;SDS011;2430;51.322;7.864;2023-06-14T13:14:57;2.20;;;1.50;;
4831;SDS011;2430;51.322;7.864;2023-06-14T13:17:23;3.93;;;1.60;;
4831;SDS011;2430;51.322;7.864;2023-06-14T13:19:52;2.00;;;1.77;;
4831;SDS011;2430;51.322;7.864;2023-06-14T13:22:18;2.37;;;1.63;;
4831;SDS011;2430;51.322;7.864;2023-06-14T13:24:44;1.80;;;1.70;;
4831;SDS011;2430;51.322;7.864;2023-06-14T13:27:11;2.90;;;1.73;;
4831;SDS011;2430;51.322;7.864;2023-06-14T13:29:39;3.70;;;1.83;;
4831;SDS011;2430;51.322;7.864;2023-06-14T13:32:05;1.90;;;1.70;;
4831;SDS011;2430;51.322;7.864;2023-06-14T13:34:32;1.80;;;1.70;;
4831;SDS011;2430;51.322;7.864;2023-06-14T13:36:59;3.87;;;1.90;;
4831;SDS011;2430;51.322;7.864;2023-06-14T13:39:26;1.63;;;1.53;;
4831;SDS011;2430;51.322;7.864;2023-06-14T13:41:52;4.50;;;2.10;;
4831;SDS011;2430;51.322;7.864;2023-06-14T13:44:18;2.23;;;2.00;;
4831;SDS011;2430;51.322;7.864;2023-06-14T13:46:46;5.83;;;1.93;;
4831;SDS011;2430;51.322;7.864;2023-06-14T13:49:12;2.13;;;1.93;;
4831;SDS011;2430;51.322;7.864;2023-06-14T13:51:38;2.43;;;2.00;;
4831;SDS011;2430;51.322;7.864;2023-06-14T13:54:06;1.90;;;1.70;;
4831;SDS011;2430;51.322;7.864;2023-06-14T13:56:32;4.47;;;2.10;;
4831;SDS011;2430;51.322;7.864;2023-06-14T13:58:58;4.83;;;1.97;;
4831;SDS011;2430;51.322;7.864;2023-06-14T14:01:26;3.23;;;2.17;;
4831;SDS011;2430;51.322;7.864;2023-06-14T14:03:53;2.60;;;2.00;;
4831;SDS011;2430;51.322;7.864;2023-06-14T14:06:20;2.10;;;1.63;;
4831;SDS011;2430;51.322;7.864;2023-06-14T14:08:49;4.03;;;2.23;;
4831;SDS011;2430;51.322;7.864;2023-06-14T14:11:17;2.37;;;2.17;;
4831;SDS011;2430;51.322;7.864;2023-06-14T14:13:43;2.80;;;2.17;;
4831;SDS011;2430;51.322;7.864;2023-06-14T14:16:10;2.90;;;2.27;;
4831;SDS011;2430;51.322;7.864;2023-06-14T14:18:36;3.27;;;2.30;;
4831;SDS011;2430;51.322;7.864;2023-06-14T14:21:03;3.40;;;2.50;;
4831;SDS011;2430;51.322;7.864;2023-06-14T14:23:29;2.67;;;2.03;;
4831;SDS011;2430;51.322;7.864;2023-06-14T14:25:56;2.30;;;2.10;;
4831;SDS011;2430;51.322;7.864;2023-06-14T14:28:24;2.80;;;2.33;;
4831;SDS011;2430;51.322;7.864;2023-06-14T14:30:50;2.53;;;2.00;;
4831;SDS011;2430;51.322;7.864;2023-06-14T14:33:18;3.00;;;2.17;;
4831;SDS011;2430;51.322;7.864;2023-06-14T14:35:45;2.13;;;1.93;;
4831;SDS011;2430;51.322;7.864;2023-06-14T14:38:11;3.33;;;2.10;;
4831;SDS011;2430;51.322;7.864;2023-06-14T14:40:38;2.30;;;1.73;;
4831;SDS011;2430;51.322;7.864;2023-06-14T14:43:05;2.40;;;2.20;;
4831;SDS011;2430;51.322;7.864;2023-06-14T14:45:32;2.37;;;2.17;;
4831;SDS011;2430;51.322;7.864;2023-06-14T14:48:00;4.43;;;2.27;;
4831;SDS011;2430;51.322;7.864;2023-06-14T14:50:26;4.80;;;2.00;;
4831;SDS011;2430;51.322;7.864;2023-06-14T14:52:53;5.10;;;2.07;;
4831;SDS011;2430;51.322;7.864;2023-06-14T14:55:19;4.43;;;2.40;;
4831;SDS011;2430;51.322;7.864;2023-06-14T14:57:46;2.10;;;1.90;;
4831;SDS011;2430;51.322;7.864;2023-06-14T15:00:13;3.97;;;2.00;;
4831;SDS011;2430;51.322;7.864;2023-06-14T15:02:41;2.60;;;2.17;;
4831;SDS011;2430;51.322;7.864;2023-06-14T15:05:07;4.13;;;1.97;;
4831;SDS011;2430;51.322;7.864;2023-06-14T15:07:33;2.40;;;2.20;;
4831;SDS011;2430;51.322;7.864;2023-06-14T15:10:00;4.37;;;2.40;;
4831;SDS011;2430;51.322;7.864;2023-06-14T15:12:26;2.33;;;2.13;;
4831;SDS011;2430;51.322;7.864;2023-06-14T15:14:53;3.27;;;2.50;;
4831;SDS011;2430;51.322;7.864;2023-06-14T15:17:20;4.30;;;2.03;;
4831;SDS011;2430;51.322;7.864;2023-06-14T15:19:47;5.00;;;2.37;;
4831;SDS011;2430;51.322;7.864;2023-06-14T15:22:14;3.97;;;2.07;;